createdAt,value
2023-02-19T00:01:49.230Z,101516.88
2023-02-19T00:04:23.858Z,101522.09
2023-02-19T00:06:56.008Z,101528.13
2023-02-19T00:09:28.476Z,101522.94
2023-02-19T00:12:00.573Z,101518.56
2023-02-19T00:14:32.652Z,101520.38
2023-02-19T00:17:04.626Z,101518.63
2023-02-19T00:19:36.697Z,101520.38
2023-02-19T00:22:08.687Z,101522.06
2023-02-19T00:24:40.815Z,101523.81
2023-02-19T00:27:12.798Z,101530.72
2023-02-19T00:29:44.784Z,101528.97
2023-02-19T00:32:16.769Z,101528.03
2023-02-19T00:34:48.783Z,101524.56
2023-02-19T00:37:20.749Z,101527.97
2023-02-19T00:39:52.892Z,101514.91
2023-02-19T00:42:25.863Z,101521.91
2023-02-19T00:44:57.947Z,101514.88
2023-02-19T00:47:30.026Z,101519.97
2023-02-19T00:50:02.117Z,101521.75
2023-02-19T00:52:34.235Z,101526.94
2023-02-19T00:55:06.654Z,101524.34
2023-02-19T00:57:38.997Z,101534.66
2023-02-19T01:00:13.930Z,101529.31
2023-02-19T01:02:45.993Z,101524.91
2023-02-19T01:05:18.168Z,101521.31
2023-02-19T01:07:50.124Z,101518.63
2023-02-19T01:10:22.221Z,101519.53
2023-02-19T01:12:54.193Z,101516.03
2023-02-19T01:15:26.248Z,101511.66
2023-02-19T01:17:58.295Z,101527.28
2023-02-19T01:20:30.312Z,101526.44
2023-02-19T01:23:02.298Z,101527.16
2023-02-19T01:25:34.462Z,101531.38
2023-02-19T01:28:07.034Z,101530.16
2023-02-19T01:30:39.634Z,101527.56
2023-02-19T01:33:11.666Z,101531.88
2023-02-19T01:35:43.668Z,101531.91
2023-02-19T01:38:15.684Z,101537.16
2023-02-19T01:40:59.942Z,101524.06
2023-02-19T01:43:53.740Z,101523.25
2023-02-19T01:46:35.190Z,101523.31
2023-02-19T01:49:20.865Z,101532.88
2023-02-19T01:52:20.806Z,101533.56
2023-02-19T01:54:54.674Z,101539.69
2023-02-19T01:57:33.400Z,101537.97
2023-02-19T02:00:13.217Z,101537.91
2023-02-19T02:02:52.294Z,101542.25
2023-02-19T02:05:45.270Z,101537.13
2023-02-19T02:08:37.180Z,101541.47
2023-02-19T02:11:09.770Z,101552.75
2023-02-19T02:13:42.291Z,101547.56
2023-02-19T02:16:24.334Z,101549.28
2023-02-19T02:19:31.913Z,101556.13
2023-02-19T02:22:08.300Z,101542.34
2023-02-19T02:25:18.493Z,101540.53
2023-02-19T02:28:07.888Z,101541.28
2023-02-19T02:31:19.980Z,101551.59
2023-02-19T02:34:03.715Z,101542.69
2023-02-19T02:36:43.971Z,101550.47
2023-02-19T02:39:18.376Z,101548.63
2023-02-19T02:42:14.852Z,101548.66
2023-02-19T02:45:07.019Z,101547.94
2023-02-19T02:47:53.807Z,101551.44
2023-02-19T02:50:33.078Z,101552.25
2023-02-19T02:53:31.817Z,101543.59
2023-02-19T02:56:05.326Z,101540.84
2023-02-19T02:58:38.478Z,101545.97
2023-02-19T03:01:42.868Z,101554.41
2023-02-19T03:04:35.416Z,101565.44
2023-02-19T03:07:10.258Z,101551.63
2023-02-19T03:09:44.500Z,101558.53
2023-02-19T03:12:45.538Z,101561.84
2023-02-19T03:15:37.898Z,101579.03
2023-02-19T03:18:30.905Z,101581.47
2023-02-19T03:21:04.388Z,101591.81
2023-02-19T03:23:56.084Z,101599.59
2023-02-19T03:26:28.676Z,101595.16
2023-02-19T03:29:21.986Z,101598.63
2023-02-19T03:32:03.529Z,101600.16
2023-02-19T03:34:45.092Z,101601.81
2023-02-19T03:37:25.452Z,101612.19
2023-02-19T03:39:58.257Z,101613.13
2023-02-19T03:43:05.529Z,101620.66
2023-02-19T03:45:50.342Z,101624.06
2023-02-19T03:48:37.241Z,101633.63
2023-02-19T03:51:44.219Z,101642.22
2023-02-19T03:54:26.079Z,101642.38
2023-02-19T03:57:20.856Z,101645.84
2023-02-19T04:00:23.147Z,101657.97
2023-02-19T04:03:20.696Z,101664.84
2023-02-19T04:06:01.668Z,101668.97
2023-02-19T04:08:37.276Z,101675.09
2023-02-19T04:11:10.982Z,101683.69
2023-02-19T04:13:54.070Z,101695.72
2023-02-19T04:16:29.717Z,101694.84
2023-02-19T04:19:18.273Z,101699.88
2023-02-19T04:21:52.375Z,101697.06
2023-02-19T04:24:44.744Z,101703.22
2023-02-19T04:27:17.381Z,101712.91
2023-02-19T04:29:49.510Z,101719.91
2023-02-19T04:32:21.652Z,101718.31
2023-02-19T04:34:54.474Z,101721.66
2023-02-19T04:37:26.706Z,101728.66
2023-02-19T04:39:58.849Z,101732.84
2023-02-19T04:42:30.858Z,101733.69
2023-02-19T04:45:02.938Z,101747.44
2023-02-19T04:47:35.004Z,101751.75
2023-02-19T04:50:07.908Z,101755.06
2023-02-19T04:52:39.971Z,101758.53
2023-02-19T04:55:11.972Z,101757.66
2023-02-19T04:57:44.075Z,101761.22
2023-02-19T05:00:16.282Z,101767.31
2023-02-19T05:02:48.300Z,101772.50
2023-02-19T05:05:20.240Z,101772.41
2023-02-19T05:07:52.223Z,101775.84
2023-02-19T05:10:24.260Z,101778.38
2023-02-19T05:12:57.963Z,101777.59
2023-02-19T05:15:30.137Z,101776.91
2023-02-19T05:18:02.125Z,101791.81
2023-02-19T05:20:34.133Z,101787.44
2023-02-19T05:23:06.113Z,101793.56
2023-02-19T05:25:38.068Z,101800.63
2023-02-19T05:28:19.388Z,101806.69
2023-02-19T05:30:53.227Z,101816.19
2023-02-19T05:33:26.578Z,101827.22
2023-02-19T05:35:58.766Z,101833.09
2023-02-19T05:38:30.747Z,101841.84
2023-02-19T05:41:14.390Z,101843.81
2023-02-19T05:43:48.867Z,101847.28
2023-02-19T05:46:24.442Z,101853.22
2023-02-19T05:48:56.952Z,101861.22
2023-02-19T05:51:29.402Z,101865.38
2023-02-19T05:54:01.550Z,101865.25
2023-02-19T05:56:40.370Z,101880.75
2023-02-19T05:59:23.726Z,101881.34
2023-02-19T06:01:55.932Z,101883.69
2023-02-19T06:04:27.980Z,101881.09
2023-02-19T06:06:59.942Z,101874.25
2023-02-19T06:09:32.474Z,101883.63
2023-02-19T06:12:04.806Z,101888.09
2023-02-19T06:14:36.869Z,101888.97
2023-02-19T06:17:08.947Z,101895.03
2023-02-19T06:19:41.166Z,101903.66
2023-02-19T06:22:15.663Z,101906.09
2023-02-19T06:24:48.305Z,101912.78
2023-02-19T06:27:20.363Z,101927.16
2023-02-19T06:29:52.526Z,101928.00
2023-02-19T06:32:24.706Z,101930.59
2023-02-19T06:34:56.856Z,101935.03
2023-02-19T06:37:29.559Z,101945.50
2023-02-19T06:40:01.627Z,101950.78
2023-02-19T06:42:33.657Z,101955.31
2023-02-19T06:45:06.340Z,101964.00
2023-02-19T06:47:38.325Z,101960.50
2023-02-19T06:50:10.439Z,101975.31
2023-02-19T06:56:27.007Z,101989.38
2023-02-19T06:59:01.612Z,102001.47
2023-02-19T07:01:35.555Z,101997.25
2023-02-19T07:04:08.149Z,101999.94
2023-02-19T07:06:40.459Z,102000.84
2023-02-19T07:09:12.922Z,102006.84
2023-02-19T07:11:45.725Z,102024.22
2023-02-19T07:14:17.900Z,102022.41
2023-02-19T07:16:50.113Z,102022.41
2023-02-19T07:19:22.121Z,102027.69
2023-02-19T07:21:54.120Z,102040.66
2023-02-19T07:24:26.176Z,102059.72
2023-02-19T07:26:58.237Z,102056.13
2023-02-19T07:29:30.179Z,102063.91
2023-02-19T07:32:02.331Z,102080.47
2023-02-19T07:34:34.385Z,102085.78
2023-02-19T07:37:06.465Z,102078.97
2023-02-19T07:39:38.422Z,102089.50
2023-02-19T07:42:10.528Z,102088.63
2023-02-19T07:44:42.546Z,102096.47
2023-02-19T07:47:14.802Z,102105.22
2023-02-19T07:49:46.777Z,102118.25
2023-02-19T07:52:18.770Z,102118.53
2023-02-19T07:54:50.729Z,102119.97
2023-02-19T07:57:22.783Z,102123.91
2023-02-19T07:59:57.257Z,102123.47
2023-02-19T08:02:47.529Z,102112.53
2023-02-19T08:05:35.009Z,102116.44
2023-02-19T08:08:14.430Z,102107.91
2023-02-19T08:12:10.948Z,102108.50
2023-02-19T08:14:43.096Z,102110.19
2023-02-19T08:17:15.156Z,102107.53
2023-02-19T08:19:47.265Z,102099.75
2023-02-19T08:22:19.284Z,102104.09
2023-02-19T08:24:51.274Z,102101.69
2023-02-19T08:27:23.268Z,102118.00
2023-02-19T08:29:55.261Z,102122.31
2023-02-19T08:32:27.297Z,102123.41
2023-02-19T08:34:59.412Z,102126.78
2023-02-19T08:37:31.475Z,102130.25
2023-02-19T08:40:03.907Z,102150.22
2023-02-19T08:42:35.870Z,102148.41
2023-02-19T08:45:08.661Z,102156.97
2023-02-19T08:47:41.138Z,102153.44
2023-02-19T08:50:13.481Z,102158.50
2023-02-19T08:52:45.454Z,102156.00
2023-02-19T08:55:18.077Z,102158.88
2023-02-19T08:57:50.702Z,102153.00
2023-02-19T09:00:23.131Z,102167.22
2023-02-19T09:02:55.112Z,102170.88
2023-02-19T09:05:27.205Z,102174.66
2023-02-19T09:07:59.475Z,102177.25
2023-02-19T09:10:31.644Z,102183.19
2023-02-19T09:13:03.688Z,102195.53
2023-02-19T09:15:38.250Z,102190.66
2023-02-19T09:18:10.212Z,102189.22
2023-02-19T09:20:42.296Z,102207.09
2023-02-19T09:23:14.245Z,102208.53
2023-02-19T09:25:46.368Z,102218.34
2023-02-19T09:28:18.411Z,102224.88
2023-02-19T09:31:06.628Z,102239.19
2023-02-19T09:33:43.645Z,102250.28
2023-02-19T09:36:22.350Z,102241.59
2023-02-19T09:38:54.772Z,102252.00
2023-02-19T09:41:32.060Z,102257.50
2023-02-19T09:44:09.501Z,102277.16
2023-02-19T09:46:47.008Z,102284.19
2023-02-19T09:49:26.459Z,102285.00
2023-02-19T09:52:02.569Z,102290.63
2023-02-19T09:54:35.289Z,102297.16
2023-02-19T09:57:19.798Z,102308.53
2023-02-19T10:00:00.470Z,102319.88
2023-02-19T10:02:33.580Z,102304.16
2023-02-19T10:05:15.151Z,102308.22
2023-02-19T10:07:51.470Z,102317.75
2023-02-19T10:10:36.161Z,102316.66
2023-02-19T10:13:23.434Z,102323.69
2023-02-19T10:15:59.407Z,102330.44
2023-02-19T10:18:44.082Z,102331.13
2023-02-19T10:21:28.043Z,102337.44
2023-02-19T10:24:03.009Z,102327.53
2023-02-19T10:26:36.832Z,102333.16
2023-02-19T10:29:10.914Z,102329.66
2023-02-19T10:31:43.005Z,102313.91
2023-02-19T10:34:22.808Z,102310.81
2023-02-19T10:36:54.813Z,102309.91
2023-02-19T10:39:42.833Z,102309.41
2023-02-19T10:42:23.068Z,102301.00
2023-02-19T10:45:01.964Z,102317.31
2023-02-19T10:47:35.943Z,102321.16
2023-02-19T10:50:47.100Z,102328.97
2023-02-19T10:53:24.430Z,102344.13
2023-02-19T10:56:25.720Z,102354.97
2023-02-19T10:59:28.621Z,102371.19
2023-02-19T11:02:04.507Z,102380.91
2023-02-19T11:04:38.102Z,102379.63
2023-02-19T11:07:18.403Z,102380.69
2023-02-19T11:09:53.810Z,102380.19
2023-02-19T11:12:30.265Z,102378.84
2023-02-19T11:15:29.098Z,102377.75
2023-02-19T11:18:13.129Z,102382.31
2023-02-19T11:21:03.809Z,102384.13
2023-02-19T11:23:44.080Z,102379.88
2023-02-19T11:26:25.091Z,102382.34
2023-02-19T11:29:03.434Z,102376.97
2023-02-19T11:31:36.302Z,102369.56
2023-02-19T11:34:14.290Z,102361.13
2023-02-19T11:36:46.216Z,102360.16
2023-02-19T11:39:18.157Z,102359.28
2023-02-19T11:42:12.092Z,102372.88
2023-02-19T11:45:34.768Z,102363.94
2023-02-19T11:48:25.136Z,102366.25
2023-02-19T11:51:28.250Z,102360.84
2023-02-19T11:54:13.192Z,102357.16
2023-02-19T11:56:49.689Z,102355.34
2023-02-19T11:59:40.205Z,102358.63
2023-02-19T12:02:44.373Z,102359.41
2023-02-19T12:05:31.557Z,102361.84
2023-02-19T12:08:27.629Z,102358.66
2023-02-19T12:11:25.198Z,102369.16
2023-02-19T12:14:42.227Z,102377.28
2023-02-19T12:17:32.345Z,102384.41
2023-02-19T12:20:32.558Z,102382.22
2023-02-19T12:23:31.494Z,102389.81
2023-02-19T12:26:52.050Z,102385.75
2023-02-19T12:29:42.244Z,102376.13
2023-02-19T12:32:34.788Z,102386.97
2023-02-19T12:35:45.221Z,102379.25
2023-02-19T12:38:23.753Z,102377.56
2023-02-19T12:41:22.148Z,102372.16
2023-02-19T12:43:55.591Z,102368.56
2023-02-19T12:46:39.384Z,102375.50
2023-02-19T12:49:14.804Z,102380.78
2023-02-19T12:51:55.279Z,102381.50
2023-02-19T12:54:30.674Z,102372.75
2023-02-19T12:57:05.788Z,102379.47
2023-02-19T12:59:56.180Z,102376.69
2023-02-19T13:02:35.896Z,102394.31
2023-02-19T13:05:13.626Z,102396.84
2023-02-19T13:08:06.278Z,102389.25
2023-02-19T13:10:51.749Z,102388.78
2023-02-19T13:13:30.095Z,102377.69
2023-02-19T13:16:07.594Z,102368.31
2023-02-19T13:18:47.201Z,102365.97
2023-02-19T13:21:40.456Z,102357.25
2023-02-19T13:24:34.743Z,102370.38
2023-02-19T13:27:57.924Z,102365.03
2023-02-19T13:30:43.433Z,102377.25
2023-02-19T13:33:37.439Z,102379.09
2023-02-19T13:36:13.250Z,102388.06
2023-02-19T13:38:47.541Z,102384.59
2023-02-19T13:41:20.610Z,102391.69
2023-02-19T13:43:58.796Z,102394.34
2023-02-19T13:46:43.280Z,102391.97
2023-02-19T13:49:31.780Z,102387.44
2023-02-19T13:52:29.700Z,102391.81
2023-02-19T13:55:55.777Z,102389.63
2023-02-19T13:58:33.269Z,102405.00
2023-02-19T14:01:14.670Z,102404.06
2023-02-19T14:03:52.844Z,102406.84
2023-02-19T14:06:28.818Z,102405.69
2023-02-19T14:09:00.823Z,102407.34
2023-02-19T14:11:41.823Z,102414.47
2023-02-19T14:14:54.931Z,102417.91
2023-02-19T14:17:35.733Z,102414.31
2023-02-19T14:20:16.676Z,102407.44
2023-02-19T14:22:57.025Z,102418.81
2023-02-19T14:25:32.107Z,102416.06
2023-02-19T14:28:15.638Z,102412.94
2023-02-19T14:31:02.609Z,102407.22
2023-02-19T14:33:38.184Z,102399.38
2023-02-19T14:36:31.343Z,102393.03
2023-02-19T14:39:24.589Z,102377.13
2023-02-19T14:42:02.223Z,102362.91
2023-02-19T14:44:56.805Z,102366.94
2023-02-19T14:47:32.268Z,102359.56
2023-02-19T14:50:20.824Z,102356.78
2023-02-19T14:52:55.357Z,102355.94
2023-02-19T14:55:36.344Z,102348.75
2023-02-19T14:58:13.774Z,102348.00
2023-02-19T15:00:45.688Z,102344.69
2023-02-19T15:03:44.811Z,102341.97
2023-02-19T15:06:18.670Z,102339.38
2023-02-19T15:08:53.564Z,102348.25
2023-02-19T15:11:26.760Z,102345.75
2023-02-19T15:14:13.193Z,102351.88
2023-02-19T15:16:48.536Z,102347.47
2023-02-19T15:19:20.481Z,102353.50
2023-02-19T15:21:52.549Z,102354.84
2023-02-19T15:24:24.821Z,102356.47
2023-02-19T15:26:56.863Z,102363.47
2023-02-19T15:29:28.981Z,102355.84
2023-02-19T15:32:01.542Z,102351.44
2023-02-19T15:34:34.218Z,102361.56
2023-02-19T15:37:08.221Z,102362.44
2023-02-19T15:39:42.168Z,102370.13
2023-02-19T15:42:24.710Z,102372.72
2023-02-19T15:45:26.141Z,102376.81
2023-02-19T15:48:09.253Z,102372.41
2023-02-19T15:50:45.657Z,102369.81
2023-02-19T15:53:22.602Z,102372.38
2023-02-19T15:56:02.215Z,102380.19
2023-02-19T15:58:55.811Z,102381.38
2023-02-19T16:01:34.488Z,102394.56
2023-02-19T16:04:14.012Z,102391.66
2023-02-19T16:06:57.695Z,102395.72
2023-02-19T16:09:36.008Z,102403.41
2023-02-19T16:12:24.845Z,102401.50
2023-02-19T16:14:56.766Z,102398.75
2023-02-19T16:17:28.779Z,102396.19
2023-02-19T16:20:02.672Z,102393.41
2023-02-19T16:22:41.248Z,102384.72
2023-02-19T16:25:44.335Z,102391.63
2023-02-19T16:28:22.562Z,102392.41
2023-02-19T16:31:03.657Z,102395.81
2023-02-19T16:33:40.858Z,102401.69
2023-02-19T16:36:43.639Z,102407.72
2023-02-19T16:39:17.481Z,102417.34
2023-02-19T16:41:49.538Z,102409.31
2023-02-19T16:44:21.374Z,102416.81
2023-02-19T16:46:58.524Z,102413.19
2023-02-19T16:49:31.075Z,102415.78
2023-02-19T16:52:04.608Z,102415.59
2023-02-19T16:54:36.676Z,102424.16
2023-02-19T16:57:08.521Z,102422.25
2023-02-19T16:59:40.443Z,102420.34
2023-02-19T17:05:31.415Z,102417.34
2023-02-19T17:08:37.182Z,102424.16
2023-02-19T17:11:14.622Z,102422.41
2023-02-19T17:13:47.433Z,102415.25
2023-02-19T17:16:28.310Z,102408.22
2023-02-19T17:19:00.417Z,102414.03
2023-02-19T17:21:34.570Z,102420.06
2023-02-19T17:24:06.507Z,102415.59
2023-02-19T17:26:38.849Z,102422.56
2023-02-19T17:29:14.044Z,102416.47
2023-02-19T17:31:46.130Z,102417.22
2023-02-19T17:34:18.082Z,102424.78
2023-02-19T17:36:50.097Z,102424.78
2023-02-19T17:39:23.344Z,102429.94
2023-02-19T17:41:55.292Z,102431.63
2023-02-19T17:44:27.168Z,102439.44
2023-02-19T17:46:59.141Z,102443.75
2023-02-19T17:49:31.052Z,102441.00
2023-02-19T17:52:03.024Z,102436.63
2023-02-19T17:54:34.923Z,102440.94
2023-02-19T17:57:06.806Z,102447.09
2023-02-19T17:59:38.679Z,102452.19
2023-02-19T18:02:10.566Z,102462.59
2023-02-19T18:04:42.680Z,102458.16
2023-02-19T18:07:14.754Z,102461.75
2023-02-19T18:09:46.662Z,102464.31
2023-02-19T18:12:18.564Z,102460.94
2023-02-19T18:14:55.653Z,102467.94
2023-02-19T18:17:27.595Z,102463.69
2023-02-19T18:19:59.611Z,102462.00
2023-02-19T18:22:32.478Z,102467.25
2023-02-19T18:25:04.483Z,102463.81
2023-02-19T18:27:36.438Z,102456.91
2023-02-19T18:30:09.199Z,102453.56
2023-02-19T18:32:41.114Z,102451.78
2023-02-19T18:35:13.104Z,102460.47
2023-02-19T18:37:45.512Z,102439.56
2023-02-19T18:40:17.698Z,102443.97
2023-02-19T18:42:49.673Z,102446.41
2023-02-19T18:45:22.067Z,102443.53
2023-02-19T18:47:53.961Z,102443.50
2023-02-19T18:50:25.888Z,102437.06
2023-02-19T18:55:35.317Z,102430.25
2023-02-19T18:58:35.278Z,102427.63
2023-02-19T19:01:07.544Z,102427.78
2023-02-19T19:03:39.446Z,102425.22
2023-02-19T19:06:11.453Z,102430.53
2023-02-19T19:08:43.385Z,102433.91
2023-02-19T19:11:15.284Z,102432.31
2023-02-19T19:13:47.165Z,102439.97
2023-02-19T19:16:23.411Z,102442.47
2023-02-19T19:18:57.072Z,102444.19
2023-02-19T19:21:29.577Z,102440.63
2023-02-19T19:24:01.715Z,102445.63
2023-02-19T19:26:36.150Z,102437.63
2023-02-19T19:29:08.400Z,102439.88
2023-02-19T19:31:40.448Z,102438.34
2023-02-19T19:34:12.900Z,102435.81
2023-02-19T19:36:45.347Z,102436.75
2023-02-19T19:39:17.188Z,102430.41
2023-02-19T19:41:56.766Z,102436.53
2023-02-19T19:44:31.222Z,102441.84
2023-02-19T19:47:32.235Z,102434.09
2023-02-19T19:50:05.206Z,102431.59
2023-02-19T19:52:37.159Z,102435.97
2023-02-19T19:55:09.597Z,102437.56
2023-02-19T19:57:41.556Z,102439.34
2023-02-19T20:00:17.781Z,102429.16
2023-02-19T20:02:49.843Z,102417.44
2023-02-19T20:05:22.017Z,102412.19
2023-02-19T20:07:54.361Z,102402.84
2023-02-19T20:10:26.266Z,102408.88
2023-02-19T20:12:58.393Z,102413.66
2023-02-19T20:15:33.383Z,102407.63
2023-02-19T20:18:05.378Z,102408.41
2023-02-19T20:20:37.312Z,102395.34
2023-02-19T20:23:09.691Z,102408.47
2023-02-19T20:25:41.567Z,102403.69
2023-02-19T20:28:13.506Z,102402.78
2023-02-19T20:30:45.467Z,102401.22
2023-02-19T20:33:17.401Z,102413.41
2023-02-19T20:35:49.259Z,102411.09
2023-02-19T20:38:21.167Z,102402.44
2023-02-19T20:40:53.033Z,102401.34
2023-02-19T20:43:24.991Z,102403.31
2023-02-19T20:45:56.958Z,102409.50
2023-02-19T20:48:28.812Z,102410.13
2023-02-19T20:51:00.741Z,102418.59
2023-02-19T20:53:32.960Z,102409.75
2023-02-19T20:56:07.814Z,102401.91
2023-02-19T21:01:28.227Z,102409.75
2023-02-19T21:04:05.347Z,102412.13
2023-02-19T21:06:37.326Z,102417.88
2023-02-19T21:09:09.243Z,102414.91
2023-02-19T21:11:41.354Z,102414.69
2023-02-19T21:14:13.244Z,102410.25
2023-02-19T21:16:45.180Z,102411.75
2023-02-19T21:19:22.912Z,102410.81
2023-02-19T21:22:33.435Z,102408.06
2023-02-19T21:25:06.016Z,102397.66
2023-02-19T21:27:38.669Z,102406.63
2023-02-19T21:30:10.892Z,102405.66
2023-02-19T21:32:42.850Z,102403.91
2023-02-19T21:35:15.230Z,102397.81
2023-02-19T21:37:47.157Z,102387.38
2023-02-19T21:40:20.699Z,102378.88
2023-02-19T21:42:52.649Z,102364.38
2023-02-19T21:45:24.545Z,102365.03
2023-02-19T21:47:56.486Z,102355.44
2023-02-19T21:50:29.542Z,102358.81
2023-02-19T21:53:01.544Z,102345.97
2023-02-19T21:55:33.517Z,102351.91
2023-02-19T21:58:05.439Z,102337.88
2023-02-19T22:00:37.357Z,102330.28
2023-02-19T22:03:15.379Z,102331.22
2023-02-19T22:05:47.387Z,102325.34
2023-02-19T22:08:20.090Z,102347.28
2023-02-19T22:10:52.046Z,102344.63
2023-02-19T22:13:23.910Z,102356.22
2023-02-19T22:15:55.761Z,102356.00
2023-02-19T22:18:27.712Z,102357.69
2023-02-19T22:20:59.596Z,102364.03
2023-02-19T22:23:31.451Z,102358.56
2023-02-19T22:26:03.585Z,102370.00
2023-02-19T22:28:35.455Z,102373.53
2023-02-19T22:31:08.163Z,102378.72
2023-02-19T22:33:40.220Z,102378.84
2023-02-19T22:36:26.523Z,102374.56
2023-02-19T22:38:59.091Z,102376.09
2023-02-19T22:41:31.282Z,102370.31
2023-02-19T22:44:03.381Z,102372.13
2023-02-19T22:46:35.276Z,102383.38
2023-02-19T22:49:07.599Z,102377.53
2023-02-19T22:51:40.275Z,102362.34
2023-02-19T22:54:12.115Z,102363.50
2023-02-19T22:56:44.267Z,102373.97
2023-02-19T22:59:16.184Z,102365.00
2023-02-19T23:01:49.201Z,102358.09
2023-02-19T23:04:22.784Z,102356.69
2023-02-19T23:06:54.704Z,102365.06
2023-02-19T23:09:28.436Z,102362.19
2023-02-19T23:12:09.511Z,102365.81
2023-02-19T23:14:41.348Z,102365.66
2023-02-19T23:17:13.213Z,102357.91
2023-02-19T23:19:45.140Z,102361.59
2023-02-19T23:22:17.155Z,102346.53
2023-02-19T23:24:49.073Z,102337.81
2023-02-19T23:27:21.384Z,102360.56
2023-02-19T23:29:53.236Z,102341.28
2023-02-19T23:32:25.181Z,102333.59
2023-02-19T23:34:57.049Z,102333.06
2023-02-19T23:37:28.915Z,102325.84
2023-02-19T23:40:00.844Z,102328.25
2023-02-19T23:42:32.686Z,102310.28
2023-02-19T23:45:04.779Z,102309.50
2023-02-19T23:47:36.692Z,102298.22
2023-02-19T23:50:08.835Z,102294.22
2023-02-19T23:52:40.724Z,102299.41
2023-02-19T23:55:13.617Z,102288.91
2023-02-19T23:57:45.534Z,102289.44
